Time;durP1;ratioP1;P1;durP2;ratioP2;P2;SDS_P1;SDS_P2;PMS_P1;PMS_P2;Temp;Humidity;BMP_temperature;BMP_pressure;BME280_temperature;BME280_humidity;BME280_pressure;Samples;Min_cycle;Max_cycle;Signal;HPM_P1;HPM_P2
2023/05/14 00:02:54;;;;;;;;;;;10.10;99.90;;;;;;8223552;28;19910;-82
2023/05/14 00:06:57;;;;;;;;;;;10.30;99.90;;;;;;8221819;28;19938;-81
2023/05/14 00:11:00;;;;;;;;;;;10.20;99.90;;;;;;8221341;28;20294;-83
2023/05/14 00:15:03;;;;;;;;;;;10.10;99.90;;;;;;8214921;28;20001;-81
2023/05/14 00:19:04;;;;;;;;;;;10.20;99.90;;;;;;8230705;28;19914;-82
2023/05/14 00:23:04;;;;;;;;;;;10.30;99.90;;;;;;8224425;28;19917;-82
2023/05/14 00:27:06;;;;;;;;;;;10.60;99.90;;;;;;8217610;28;20455;-81
2023/05/14 00:31:06;;;;;;;;;;;10.80;99.90;;;;;;8218592;28;20379;-82
2023/05/14 00:35:07;;;;;;;;;;;10.80;99.90;;;;;;8225100;28;19910;-82
2023/05/14 00:39:08;;;;;;;;;;;10.70;99.90;;;;;;8228519;28;19918;-82
2023/05/14 00:43:08;;;;;;;;;;;10.50;99.90;;;;;;8217631;28;19962;-82
2023/05/14 00:47:11;;;;;;;;;;;10.50;99.90;;;;;;8230961;28;19921;-82
2023/05/14 00:51:15;;;;;;;;;;;10.50;99.90;;;;;;8225981;28;20471;-83
2023/05/14 00:55:20;;;;;;;;;;;10.50;99.90;;;;;;8213511;28;20127;-82
2023/05/14 00:59:20;;;;;;;;;;;10.40;99.90;;;;;;8228907;28;19914;-82
2023/05/14 01:03:21;;;;;;;;;;;10.70;99.90;;;;;;8230944;28;19910;-82
2023/05/14 01:07:25;;;;;;;;;;;11.10;99.90;;;;;;8225606;28;19910;-83
2023/05/14 01:11:30;;;;;;;;;;;11.10;99.90;;;;;;8226721;28;19999;-82
2023/05/14 01:15:33;;;;;;;;;;;11.10;99.90;;;;;;8221153;28;19910;-82
2023/05/14 01:19:38;;;;;;;;;;;11.10;99.90;;;;;;8215804;28;20334;-82
2023/05/14 01:23:39;;;;;;;;;;;11.00;99.90;;;;;;8215022;28;19925;-82
2023/05/14 01:27:44;;;;;;;;;;;10.90;99.90;;;;;;8218249;28;19914;-83
2023/05/14 01:31:46;;;;;;;;;;;10.80;99.90;;;;;;8219833;28;19914;-82
2023/05/14 01:35:47;;;;;;;;;;;11.10;99.90;;;;;;8225307;28;20005;-82
2023/05/14 01:39:49;;;;;;;;;;;11.00;99.90;;;;;;8224273;28;20388;-81
2023/05/14 01:43:50;;;;;;;;;;;10.90;99.90;;;;;;8213553;28;19910;-82
2023/05/14 01:47:51;;;;;;;;;;;11.00;99.90;;;;;;8223208;28;19910;-82
2023/05/14 01:51:51;;;;;;;;;;;11.10;99.90;;;;;;8222431;28;20017;-82
2023/05/14 01:55:52;;;;;;;;;;;10.90;99.90;;;;;;8221793;28;19917;-84
2023/05/14 01:59:53;;;;;;;;;;;10.80;99.90;;;;;;8219796;28;20264;-85
2023/05/14 02:03:53;;;;;;;;;;;10.80;99.90;;;;;;8207021;28;19918;-83
2023/05/14 02:07:54;;;;;;;;;;;11.00;99.90;;;;;;8224912;28;20005;-84
2023/05/14 02:11:54;;;;;;;;;;;11.10;99.90;;;;;;8223087;28;19961;-84
2023/05/14 02:15:55;;;;;;;;;;;11.30;99.90;;;;;;8237743;28;19989;-84
2023/05/14 02:19:55;;;;;;;;;;;11.30;99.90;;;;;;8240789;28;19918;-85
2023/05/14 02:23:56;;;;;;;;;;;11.00;99.90;;;;;;8229010;28;19921;-85
2023/05/14 02:27:56;;;;;;;;;;;11.20;99.90;;;;;;8236911;28;19921;-84
2023/05/14 02:31:57;;;;;;;;;;;11.00;99.90;;;;;;8227215;28;20397;-84
2023/05/14 02:35:58;;;;;;;;;;;11.00;99.90;;;;;;8231576;28;19917;-84
2023/05/14 02:39:58;;;;;;;;;;;10.80;99.90;;;;;;8217206;28;19922;-84
2023/05/14 02:43:59;;;;;;;;;;;10.70;99.90;;;;;;8223114;28;19910;-84
2023/05/14 02:47:59;;;;;;;;;;;11.00;99.90;;;;;;8232868;28;19915;-84
2023/05/14 02:52:00;;;;;;;;;;;11.00;99.90;;;;;;8228708;28;20264;-86
2023/05/14 02:56:01;;;;;;;;;;;11.20;99.90;;;;;;8233558;28;19918;-86
2023/05/14 03:00:01;;;;;;;;;;;11.20;99.90;;;;;;8232174;28;19921;-84
2023/05/14 03:04:05;;;;;;;;;;;11.40;99.90;;;;;;8241825;28;19914;-84
2023/05/14 03:08:07;;;;;;;;;;;11.30;99.90;;;;;;8233141;28;19925;-86
2023/05/14 03:12:07;;;;;;;;;;;11.20;99.90;;;;;;8234275;28;19911;-85
2023/05/14 03:16:08;;;;;;;;;;;11.30;99.90;;;;;;8230933;28;19910;-84
2023/05/14 03:20:09;;;;;;;;;;;11.10;99.90;;;;;;8229429;28;19965;-84
2023/05/14 03:24:10;;;;;;;;;;;11.00;99.90;;;;;;8242015;28;19922;-84
2023/05/14 03:28:10;;;;;;;;;;;11.00;99.90;;;;;;8240857;28;19926;-87
2023/05/14 03:32:14;;;;;;;;;;;11.00;99.90;;;;;;8280648;28;19922;-87
2023/05/14 03:36:14;;;;;;;;;;;11.00;99.90;;;;;;8250455;28;19914;-84
2023/05/14 03:40:15;;;;;;;;;;;11.00;99.90;;;;;;8226435;28;19981;-84
2023/05/14 03:44:15;;;;;;;;;;;11.00;99.90;;;;;;8222997;28;19918;-84
2023/05/14 03:48:19;;;;;;;;;;;11.00;99.90;;;;;;8227869;28;19934;-84
2023/05/14 03:52:19;;;;;;;;;;;11.00;99.90;;;;;;8231562;28;19950;-85
2023/05/14 03:56:21;;;;;;;;;;;11.10;99.90;;;;;;8226528;28;19941;-84
2023/05/14 04:00:21;;;;;;;;;;;11.10;99.90;;;;;;8231860;28;19914;-84
2023/05/14 04:04:22;;;;;;;;;;;11.30;99.90;;;;;;8227349;28;19910;-84
2023/05/14 04:08:23;;;;;;;;;;;11.30;99.90;;;;;;8227292;28;19910;-85
2023/05/14 04:12:23;;;;;;;;;;;11.40;99.90;;;;;;8231758;28;19964;-85
2023/05/14 04:16:24;;;;;;;;;;;11.40;99.90;;;;;;8220423;28;19918;-84
2023/05/14 04:20:24;;;;;;;;;;;11.30;99.90;;;;;;8227765;28;19914;-84
2023/05/14 04:24:25;;;;;;;;;;;11.30;99.90;;;;;;8238258;28;19918;-84
2023/05/14 04:28:26;;;;;;;;;;;11.40;99.90;;;;;;8226244;28;20049;-84
2023/05/14 04:32:26;;;;;;;;;;;11.10;99.90;;;;;;8207659;28;19914;-84
2023/05/14 04:36:27;;;;;;;;;;;11.50;99.90;;;;;;8230458;28;19914;-84
2023/05/14 04:40:27;;;;;;;;;;;11.40;99.90;;;;;;8229966;28;19942;-84
2023/05/14 04:44:30;;;;;;;;;;;11.20;99.90;;;;;;8217180;28;19914;-84
2023/05/14 04:48:31;;;;;;;;;;;11.10;99.90;;;;;;8235942;28;19953;-84
2023/05/14 04:52:32;;;;;;;;;;;11.50;99.90;;;;;;8232986;28;19917;-84
2023/05/14 04:56:32;;;;;;;;;;;11.60;99.90;;;;;;8227522;28;19918;-84
2023/05/14 05:00:33;;;;;;;;;;;11.90;99.90;;;;;;8235989;28;19939;-84
2023/05/14 05:04:34;;;;;;;;;;;11.80;99.90;;;;;;8232723;28;20448;-84
2023/05/14 05:08:35;;;;;;;;;;;11.90;99.90;;;;;;8222490;28;19910;-85
2023/05/14 05:12:36;;;;;;;;;;;11.90;99.90;;;;;;8236973;28;19917;-84
2023/05/14 05:16:36;;;;;;;;;;;11.80;99.90;;;;;;8219065;28;20383;-85
2023/05/14 05:20:37;;;;;;;;;;;11.80;99.90;;;;;;8232466;28;19925;-84
2023/05/14 05:24:37;;;;;;;;;;;11.70;99.90;;;;;;8232242;28;19940;-84
2023/05/14 05:28:38;;;;;;;;;;;11.70;99.90;;;;;;8217727;28;19915;-84
2023/05/14 05:32:39;;;;;;;;;;;11.70;99.90;;;;;;8218797;28;19914;-84
2023/05/14 05:36:39;;;;;;;;;;;11.70;99.90;;;;;;8224234;28;19930;-84
2023/05/14 05:40:40;;;;;;;;;;;11.40;99.90;;;;;;8223221;28;19918;-84
2023/05/14 05:44:40;;;;;;;;;;;11.30;99.90;;;;;;8238655;28;19964;-85
2023/05/14 05:48:41;;;;;;;;;;;11.40;99.90;;;;;;8228800;28;19910;-84
2023/05/14 05:52:42;;;;;;;;;;;11.50;99.90;;;;;;8231696;28;19914;-84
2023/05/14 05:56:43;;;;;;;;;;;11.50;99.90;;;;;;8236148;28;19918;-85
2023/05/14 06:00:43;;;;;;;;;;;11.50;99.90;;;;;;8227349;28;19990;-84
2023/05/14 06:04:44;;;;;;;;;;;11.30;99.90;;;;;;8232924;28;19914;-84
2023/05/14 06:08:45;;;;;;;;;;;11.40;99.90;;;;;;8229736;28;19921;-85
2023/05/14 06:12:45;;;;;;;;;;;11.40;99.90;;;;;;8232218;28;19918;-86
2023/05/14 06:16:46;;;;;;;;;;;11.60;99.90;;;;;;8230707;28;20500;-85
2023/05/14 06:20:46;;;;;;;;;;;11.80;99.90;;;;;;8226260;28;20652;-84
2023/05/14 06:24:47;;;;;;;;;;;12.00;99.90;;;;;;8224632;28;19925;-84
2023/05/14 06:28:48;;;;;;;;;;;12.20;99.90;;;;;;8230406;28;19918;-84
2023/05/14 06:32:49;;;;;;;;;;;12.00;99.90;;;;;;8232101;28;19910;-84
2023/05/14 06:36:49;;;;;;;;;;;12.10;99.90;;;;;;8231821;28;19910;-84
2023/05/14 06:40:51;;;;;;;;;;;12.20;99.90;;;;;;8226930;28;20417;-84
2023/05/14 06:44:52;;;;;;;;;;;12.10;99.90;;;;;;8225387;28;19918;-83
2023/05/14 06:48:52;;;;;;;;;;;12.40;99.90;;;;;;8233327;28;20399;-85
2023/05/14 06:52:53;;;;;;;;;;;12.60;99.90;;;;;;8230123;28;19918;-86
2023/05/14 06:56:54;;;;;;;;;;;12.60;99.90;;;;;;8225831;28;19921;-84
2023/05/14 07:00:54;;;;;;;;;;;12.60;99.90;;;;;;8241838;28;19939;-85
2023/05/14 07:04:55;;;;;;;;;;;12.60;99.90;;;;;;8222485;28;19915;-84
2023/05/14 07:08:55;;;;;;;;;;;12.40;99.90;;;;;;8243593;28;19948;-84
2023/05/14 07:12:56;;;;;;;;;;;12.00;99.90;;;;;;8223264;28;19964;-84
2023/05/14 07:16:57;;;;;;;;;;;11.80;99.90;;;;;;8233254;28;19915;-84
2023/05/14 07:20:57;;;;;;;;;;;11.80;99.90;;;;;;8236217;28;19954;-86
2023/05/14 07:25:00;;;;;;;;;;;11.90;99.90;;;;;;8242012;28;19961;-84
2023/05/14 07:29:01;;;;;;;;;;;11.70;99.90;;;;;;8225943;28;19953;-85
2023/05/14 07:33:07;;;;;;;;;;;11.50;99.90;;;;;;8239441;28;19910;-87
2023/05/14 07:37:11;;;;;;;;;;;11.60;99.90;;;;;;8239633;28;19914;-87
2023/05/14 07:41:12;;;;;;;;;;;11.70;99.90;;;;;;8247017;28;19917;-85
2023/05/14 07:45:18;;;;;;;;;;;12.00;99.90;;;;;;8241322;28;19914;-85
2023/05/14 07:49:19;;;;;;;;;;;12.20;99.90;;;;;;8232200;28;19914;-86
2023/05/14 07:53:20;;;;;;;;;;;12.30;99.90;;;;;;8248176;28;19911;-85
2023/05/14 07:57:21;;;;;;;;;;;12.50;99.90;;;;;;8230214;28;19922;-84
2023/05/14 08:01:22;;;;;;;;;;;12.70;99.90;;;;;;8234947;28;19975;-83
2023/05/14 08:05:22;;;;;;;;;;;13.00;99.90;;;;;;8225265;28;20292;-82
2023/05/14 08:09:23;;;;;;;;;;;12.90;99.90;;;;;;8246750;28;19958;-83
2023/05/14 08:13:27;;;;;;;;;;;13.00;99.90;;;;;;8242963;28;19917;-83
2023/05/14 08:17:30;;;;;;;;;;;12.60;99.90;;;;;;8244204;28;19922;-82
2023/05/14 08:21:31;;;;;;;;;;;12.30;99.90;;;;;;8229770;28;19926;-83
2023/05/14 08:25:32;;;;;;;;;;;12.20;99.90;;;;;;8236712;28;20378;-82
2023/05/14 08:29:33;;;;;;;;;;;12.40;99.90;;;;;;8224761;28;20025;-83
2023/05/14 08:33:33;;;;;;;;;;;12.00;99.90;;;;;;8242981;28;19953;-83
2023/05/14 08:37:34;;;;;;;;;;;12.20;99.90;;;;;;8243518;28;19914;-83
2023/05/14 08:41:36;;;;;;;;;;;12.50;99.90;;;;;;8236598;28;19925;-84
2023/05/14 08:45:40;;;;;;;;;;;12.90;99.90;;;;;;8232296;28;20451;-82
2023/05/14 08:49:42;;;;;;;;;;;13.10;99.90;;;;;;8234667;28;19910;-82
2023/05/14 08:53:43;;;;;;;;;;;13.00;99.90;;;;;;8237048;28;19914;-82
2023/05/14 08:57:45;;;;;;;;;;;12.80;99.90;;;;;;8233634;28;19921;-83
2023/05/14 09:01:46;;;;;;;;;;;12.70;99.90;;;;;;8238956;28;20387;-83
2023/05/14 09:05:50;;;;;;;;;;;12.80;99.90;;;;;;8229818;28;20371;-82
2023/05/14 09:10:01;;;;;;;;;;;12.70;99.90;;;;;;8240558;28;19914;-82
2023/05/14 09:14:07;;;;;;;;;;;12.60;99.90;;;;;;8246181;28;19992;-83
2023/05/14 09:18:08;;;;;;;;;;;12.30;99.90;;;;;;8232077;28;20386;-81
2023/05/14 09:22:10;;;;;;;;;;;12.30;99.90;;;;;;8227360;28;19952;-83
2023/05/14 09:26:11;;;;;;;;;;;11.90;99.90;;;;;;8235050;28;20005;-84
2023/05/14 09:30:14;;;;;;;;;;;12.00;99.90;;;;;;8230532;28;19969;-83
2023/05/14 09:34:22;;;;;;;;;;;12.00;99.90;;;;;;8234590;28;19921;-83
2023/05/14 09:38:26;;;;;;;;;;;11.80;99.90;;;;;;8241722;28;19945;-81
2023/05/14 09:42:30;;;;;;;;;;;11.80;99.90;;;;;;8226423;28;19918;-83
2023/05/14 09:46:33;;;;;;;;;;;11.70;99.90;;;;;;8226795;28;20330;-83
2023/05/14 09:50:40;;;;;;;;;;;11.80;99.90;;;;;;8229841;28;19911;-83
2023/05/14 09:54:41;;;;;;;;;;;11.70;99.90;;;;;;8238371;28;19914;-83
2023/05/14 09:58:41;;;;;;;;;;;11.50;99.90;;;;;;8237448;28;20391;-83
2023/05/14 10:02:45;;;;;;;;;;;11.80;99.90;;;;;;8227011;28;19915;-83
2023/05/14 10:06:50;;;;;;;;;;;12.00;99.90;;;;;;8221927;28;19917;-83
2023/05/14 10:10:52;;;;;;;;;;;12.10;99.90;;;;;;8218493;28;19917;-84
2023/05/14 10:14:56;;;;;;;;;;;12.10;99.90;;;;;;8221335;28;19909;-83
2023/05/14 10:19:01;;;;;;;;;;;12.10;99.90;;;;;;8223600;28;19921;-82
2023/05/14 10:23:01;;;;;;;;;;;12.50;99.90;;;;;;8220630;28;20291;-83
2023/05/14 10:27:02;;;;;;;;;;;12.70;99.90;;;;;;8221495;28;19928;-82
2023/05/14 10:31:07;;;;;;;;;;;12.50;99.90;;;;;;8234368;28;20291;-82
2023/05/14 10:35:24;;;;;;;;;;;12.70;99.90;;;;;;8224394;28;19910;-82
2023/05/14 10:39:38;;;;;;;;;;;13.00;99.90;;;;;;8229465;28;19914;-82
2023/05/14 10:43:39;;;;;;;;;;;13.70;99.90;;;;;;8211990;28;19922;-84
2023/05/14 10:47:44;;;;;;;;;;;14.30;99.90;;;;;;8231364;28;19925;-82
2023/05/14 10:51:48;;;;;;;;;;;15.00;99.90;;;;;;8226272;28;19910;-83
2023/05/14 10:55:53;;;;;;;;;;;16.00;99.90;;;;;;8226762;28;19911;-82
2023/05/14 10:59:55;;;;;;;;;;;16.10;99.90;;;;;;8229259;28;19937;-83
2023/05/14 11:03:57;;;;;;;;;;;15.50;99.90;;;;;;8228369;28;20379;-83
2023/05/14 11:07:58;;;;;;;;;;;14.30;99.90;;;;;;8217614;28;20010;-82
2023/05/14 11:11:58;;;;;;;;;;;13.50;99.90;;;;;;8227319;28;19982;-83
2023/05/14 11:16:00;;;;;;;;;;;13.10;99.90;;;;;;8227828;28;19986;-83
2023/05/14 11:20:00;;;;;;;;;;;13.10;99.90;;;;;;8212835;28;20028;-83
2023/05/14 11:24:03;;;;;;;;;;;13.20;99.90;;;;;;8230535;28;19918;-83
2023/05/14 11:28:04;;;;;;;;;;;13.20;99.90;;;;;;8210508;28;19957;-83
2023/05/14 11:32:05;;;;;;;;;;;13.50;99.90;;;;;;8213898;28;19914;-83
2023/05/14 11:36:05;;;;;;;;;;;13.70;99.90;;;;;;8227923;28;20401;-82
2023/05/14 11:40:15;;;;;;;;;;;13.80;99.90;;;;;;8215225;28;19920;-83
2023/05/14 11:44:19;;;;;;;;;;;13.70;99.90;;;;;;8221125;28;19914;-82
2023/05/14 11:48:20;;;;;;;;;;;13.70;99.90;;;;;;8222530;28;20281;-83
2023/05/14 11:52:21;;;;;;;;;;;13.90;99.90;;;;;;8211343;28;19945;-83
2023/05/14 11:56:24;;;;;;;;;;;13.80;99.90;;;;;;8213885;28;19914;-83
2023/05/14 12:00:25;;;;;;;;;;;13.80;99.90;;;;;;8222131;28;19925;-83
2023/05/14 12:04:25;;;;;;;;;;;14.20;99.90;;;;;;8213793;28;19921;-83
2023/05/14 12:08:32;;;;;;;;;;;14.90;99.90;;;;;;8209659;28;19916;-82
2023/05/14 12:12:36;;;;;;;;;;;15.70;99.90;;;;;;8221195;28;19949;-83
2023/05/14 12:16:41;;;;;;;;;;;16.90;99.90;;;;;;8227607;28;20280;-83
2023/05/14 12:20:45;;;;;;;;;;;18.20;99.90;;;;;;8223590;28;20012;-83
2023/05/14 12:25:15;;;;;;;;;;;18.70;99.90;;;;;;8224854;28;19949;-83
2023/05/14 12:29:20;;;;;;;;;;;20.60;99.90;;;;;;8215082;28;19949;-83
2023/05/14 12:33:22;;;;;;;;;;;20.70;99.90;;;;;;8224032;28;19915;-83
2023/05/14 12:37:23;;;;;;;;;;;19.90;99.90;;;;;;8220166;28;19922;-83
2023/05/14 12:41:27;;;;;;;;;;;18.80;99.90;;;;;;8219538;28;20004;-82
2023/05/14 12:45:28;;;;;;;;;;;17.70;99.90;;;;;;8226848;28;19947;-81
2023/05/14 12:49:29;;;;;;;;;;;17.60;99.90;;;;;;8233527;28;19944;-82
2023/05/14 12:53:29;;;;;;;;;;;17.20;99.90;;;;;;8231489;28;19914;-82
2023/05/14 12:57:31;;;;;;;;;;;17.30;99.90;;;;;;8227270;28;19940;-83
2023/05/14 13:01:35;;;;;;;;;;;18.10;99.90;;;;;;8231279;28;19914;-83
2023/05/14 13:05:39;;;;;;;;;;;20.40;99.90;;;;;;8223740;28;19923;-83
2023/05/14 13:09:42;;;;;;;;;;;23.80;99.90;;;;;;8219516;28;20383;-83
2023/05/14 13:13:45;;;;;;;;;;;24.00;99.90;;;;;;8216870;28;20469;-83
2023/05/14 13:17:46;;;;;;;;;;;22.30;99.90;;;;;;8216951;28;19917;-82
2023/05/14 13:21:49;;;;;;;;;;;19.00;99.90;;;;;;8223430;28;19922;-83
2023/05/14 13:25:53;;;;;;;;;;;17.80;99.90;;;;;;8221712;28;19918;-83
2023/05/14 13:29:57;;;;;;;;;;;17.40;99.90;;;;;;8214503;28;19923;-82
2023/05/14 13:34:01;;;;;;;;;;;16.90;99.90;;;;;;8221239;28;20077;-83
2023/05/14 13:38:02;;;;;;;;;;;16.60;99.90;;;;;;8219344;28;20328;-83
2023/05/14 13:42:02;;;;;;;;;;;17.00;99.90;;;;;;8226530;28;20000;-82
2023/05/14 13:46:06;;;;;;;;;;;17.50;99.90;;;;;;8228832;28;19984;-83
2023/05/14 13:50:07;;;;;;;;;;;17.30;99.90;;;;;;8230575;28;19922;-84
2023/05/14 13:54:10;;;;;;;;;;;17.30;99.90;;;;;;8231745;28;20342;-84
2023/05/14 13:58:14;;;;;;;;;;;17.30;99.90;;;;;;8224815;28;20279;-86
2023/05/14 14:02:14;;;;;;;;;;;19.00;99.90;;;;;;8225852;28;19914;-85
2023/05/14 14:06:30;;;;;;;;;;;19.00;99.90;;;;;;8223892;28;20287;-85
2023/05/14 14:10:30;;;;;;;;;;;18.80;99.90;;;;;;8234903;28;19918;-85
2023/05/14 14:14:37;;;;;;;;;;;18.20;99.90;;;;;;8230816;28;20367;-85
2023/05/14 14:18:46;;;;;;;;;;;17.60;99.90;;;;;;8234063;28;19922;-85
2023/05/14 14:23:18;;;;;;;;;;;17.50;99.90;;;;;;8244867;28;19918;-85
2023/05/14 14:27:24;;;;;;;;;;;19.30;99.90;;;;;;8237601;28;19929;-85
2023/05/14 14:31:28;;;;;;;;;;;19.10;99.90;;;;;;8223305;28;20371;-85
2023/05/14 14:35:37;;;;;;;;;;;17.80;99.90;;;;;;8231474;28;20484;-85
2023/05/14 14:39:41;;;;;;;;;;;17.20;99.90;;;;;;8220920;28;20516;-85
2023/05/14 14:43:49;;;;;;;;;;;17.10;99.90;;;;;;8224802;28;19918;-85
2023/05/14 14:47:50;;;;;;;;;;;16.90;99.90;;;;;;8207904;28;20338;-85
2023/05/14 14:51:53;;;;;;;;;;;17.00;99.90;;;;;;8237520;28;19937;-85
2023/05/14 14:55:54;;;;;;;;;;;16.90;99.90;;;;;;8231746;28;20367;-82
2023/05/14 14:59:55;;;;;;;;;;;17.10;99.90;;;;;;8219542;28;19922;-83
2023/05/14 15:03:56;;;;;;;;;;;17.60;99.90;;;;;;8218993;28;20656;-83
2023/05/14 15:08:02;;;;;;;;;;;18.90;99.90;;;;;;8219466;28;19922;-83
2023/05/14 15:12:05;;;;;;;;;;;20.90;99.90;;;;;;8229948;28;20004;-83
2023/05/14 15:16:15;;;;;;;;;;;22.50;99.90;;;;;;8225062;28;19918;-81
2023/05/14 15:20:22;;;;;;;;;;;23.00;99.90;;;;;;8230252;28;19924;-82
2023/05/14 15:24:31;;;;;;;;;;;21.50;99.90;;;;;;8223669;28;19914;-83
2023/05/14 15:28:35;;;;;;;;;;;19.50;99.90;;;;;;8224399;28;19922;-83
2023/05/14 15:32:35;;;;;;;;;;;17.90;99.90;;;;;;8218698;28;19914;-81
2023/05/14 15:36:36;;;;;;;;;;;16.30;99.90;;;;;;8233022;28;19914;-82
2023/05/14 15:40:37;;;;;;;;;;;15.00;99.90;;;;;;8234946;28;19918;-83
2023/05/14 15:44:37;;;;;;;;;;;13.90;99.90;;;;;;8230652;28;20399;-81
2023/05/14 15:48:40;;;;;;;;;;;12.90;99.90;;;;;;8232488;28;19969;-81
2023/05/14 15:52:54;;;;;;;;;;;11.60;99.90;;;;;;8226763;28;19940;-82
2023/05/14 15:56:58;;;;;;;;;;;11.00;99.90;;;;;;8221913;28;19910;-82
2023/05/14 16:00:58;;;;;;;;;;;11.00;99.90;;;;;;8224954;28;19926;-83
2023/05/14 16:04:59;;;;;;;;;;;11.10;99.90;;;;;;8223040;28;20375;-83
2023/05/14 16:09:03;;;;;;;;;;;11.20;99.90;;;;;;8237975;28;19918;-83
2023/05/14 16:13:15;;;;;;;;;;;11.20;99.90;;;;;;8236828;28;19918;-83
2023/05/14 16:17:31;;;;;;;;;;;11.30;99.90;;;;;;8232758;28;19954;-83
2023/05/14 16:22:03;;;;;;;;;;;11.40;99.90;;;;;;8212544;28;20256;-83
2023/05/14 16:26:09;;;;;;;;;;;11.50;99.90;;;;;;8227983;28;20028;-83
2023/05/14 16:30:19;;;;;;;;;;;11.60;99.90;;;;;;8226223;28;19918;-83
2023/05/14 16:34:48;;;;;;;;;;;;;;;;;;;;;
2023/05/14 16:39:01;;;;;;;;;;;11.70;99.90;;;;;;8240797;28;19925;-83
2023/05/14 16:43:20;;;;;;;;;;;11.30;99.90;;;;;;8230950;28;19964;-83
2023/05/14 16:47:24;;;;;;;;;;;11.40;99.90;;;;;;8236608;28;19921;-83
2023/05/14 16:51:25;;;;;;;;;;;11.60;99.90;;;;;;8229834;28;19923;-82
2023/05/14 16:55:32;;;;;;;;;;;11.60;99.90;;;;;;8228429;28;19910;-83
2023/05/14 16:59:52;;;;;;;;;;;11.70;99.90;;;;;;8229010;28;19914;-83
2023/05/14 17:03:58;;;;;;;;;;;12.00;99.90;;;;;;8222489;28;19914;-82
2023/05/14 17:08:04;;;;;;;;;;;12.10;99.90;;;;;;8228815;28;19910;-83
2023/05/14 17:12:22;;;;;;;;;;;12.00;99.90;;;;;;8236062;28;19918;-83
2023/05/14 17:16:26;;;;;;;;;;;11.80;99.90;;;;;;8232469;28;19913;-82
2023/05/14 17:20:30;;;;;;;;;;;11.80;99.90;;;;;;8229906;28;20383;-81
2023/05/14 17:24:45;;;;;;;;;;;12.00;99.90;;;;;;8204646;28;19968;-82
2023/05/14 17:28:45;;;;;;;;;;;12.00;99.90;;;;;;8221399;28;19918;-82
2023/05/14 17:32:52;;;;;;;;;;;11.70;99.90;;;;;;8215096;28;19917;-82
2023/05/14 17:36:52;;;;;;;;;;;11.70;99.90;;;;;;8229785;28;20009;-83
2023/05/14 17:40:59;;;;;;;;;;;11.80;99.90;;;;;;8210780;28;20262;-82
2023/05/14 17:45:07;;;;;;;;;;;12.10;99.90;;;;;;8226952;28;19911;-83
2023/05/14 17:49:11;;;;;;;;;;;12.40;99.90;;;;;;8227952;28;19919;-82
2023/05/14 17:53:14;;;;;;;;;;;12.00;99.90;;;;;;8235304;28;20495;-83
2023/05/14 17:57:21;;;;;;;;;;;12.00;99.90;;;;;;8224466;28;19917;-82
2023/05/14 18:01:22;;;;;;;;;;;11.80;99.90;;;;;;8235171;28;19914;-82
2023/05/14 18:05:30;;;;;;;;;;;11.70;99.90;;;;;;8236921;28;19917;-82
2023/05/14 18:09:34;;;;;;;;;;;11.40;99.90;;;;;;8230603;28;19910;-81
2023/05/14 18:13:37;;;;;;;;;;;11.00;99.90;;;;;;8222711;28;20000;-83
2023/05/14 18:17:38;;;;;;;;;;;10.90;99.90;;;;;;8221968;28;19927;-82
2023/05/14 18:21:38;;;;;;;;;;;11.00;99.90;;;;;;8232486;28;19926;-82
2023/05/14 18:25:39;;;;;;;;;;;10.80;99.90;;;;;;8225832;28;19918;-82
2023/05/14 18:29:41;;;;;;;;;;;10.60;99.90;;;;;;8229586;28;19933;-82
2023/05/14 18:33:42;;;;;;;;;;;10.50;99.90;;;;;;8223709;28;19910;-83
2023/05/14 18:37:48;;;;;;;;;;;10.50;99.90;;;;;;8226161;28;19925;-83
2023/05/14 18:41:48;;;;;;;;;;;10.40;99.90;;;;;;8220130;28;20299;-83
2023/05/14 18:46:11;;;;;;;;;;;11.00;99.90;;;;;;8212634;28;19922;-83
2023/05/14 18:50:11;;;;;;;;;;;10.80;99.90;;;;;;8223145;28;19913;-83
2023/05/14 18:54:12;;;;;;;;;;;10.70;99.90;;;;;;8233566;28;20400;-83
2023/05/14 18:58:13;;;;;;;;;;;10.60;99.90;;;;;;8228473;28;20009;-83
2023/05/14 19:02:49;;;;;;;;;;;10.20;99.90;;;;;;8211985;28;20272;-84
2023/05/14 19:06:49;;;;;;;;;;;9.90;99.90;;;;;;8202391;28;20004;-83
2023/05/14 19:10:51;;;;;;;;;;;9.70;99.90;;;;;;8207290;28;19914;-83
2023/05/14 19:15:07;;;;;;;;;;;9.80;99.90;;;;;;8227603;28;19940;-83
2023/05/14 19:19:08;;;;;;;;;;;9.60;99.90;;;;;;8209582;28;19918;-83
2023/05/14 19:23:35;;;;;;;;;;;9.20;99.90;;;;;;8229518;28;20557;-83
2023/05/14 19:27:46;;;;;;;;;;;9.40;99.90;;;;;;8221874;28;19928;-83
2023/05/14 19:31:50;;;;;;;;;;;8.90;99.90;;;;;;8212054;28;19968;-83
2023/05/14 19:35:54;;;;;;;;;;;8.40;99.90;;;;;;8229027;28;20049;-82
2023/05/14 19:39:57;;;;;;;;;;;9.00;99.90;;;;;;8216323;28;19926;-83
2023/05/14 19:44:02;;;;;;;;;;;8.90;99.90;;;;;;8238424;28;19998;-83
2023/05/14 19:48:06;;;;;;;;;;;8.90;99.90;;;;;;8237242;28;19984;-83
2023/05/14 19:52:10;;;;;;;;;;;8.90;99.90;;;;;;8236308;28;20001;-83
2023/05/14 19:56:20;;;;;;;;;;;8.90;99.90;;;;;;8237141;28;20022;-83
2023/05/14 20:00:21;;;;;;;;;;;9.00;99.90;;;;;;8228911;28;19914;-83
2023/05/14 20:04:25;;;;;;;;;;;9.20;99.90;;;;;;8221042;28;19910;-83
2023/05/14 20:08:25;;;;;;;;;;;9.10;99.90;;;;;;8235565;28;20663;-83
2023/05/14 20:12:32;;;;;;;;;;;9.20;99.90;;;;;;8233465;28;19910;-83
2023/05/14 20:16:36;;;;;;;;;;;9.30;99.90;;;;;;8233581;28;20458;-83
2023/05/14 20:20:36;;;;;;;;;;;9.10;99.90;;;;;;8233621;28;19923;-83
2023/05/14 20:24:40;;;;;;;;;;;9.10;99.90;;;;;;8220064;28;19914;-82
2023/05/14 20:28:48;;;;;;;;;;;9.30;99.90;;;;;;8242272;28;19933;-83
2023/05/14 20:32:51;;;;;;;;;;;9.80;99.90;;;;;;8232177;28;19921;-83
2023/05/14 20:36:56;;;;;;;;;;;9.70;99.90;;;;;;8230311;28;19915;-82
2023/05/14 20:45:40;;;;;;;;;;;9.50;99.90;;;;;;8222047;28;19910;-85
2023/05/14 20:49:40;;;;;;;;;;;9.80;99.90;;;;;;8237863;28;19914;-85
2023/05/14 20:53:46;;;;;;;;;;;9.80;99.90;;;;;;8232358;28;19918;-85
2023/05/14 20:57:59;;;;;;;;;;;9.70;99.90;;;;;;8248011;28;19926;-84
2023/05/14 21:02:15;;;;;;;;;;;10.00;99.90;;;;;;8237844;28;19914;-84
2023/05/14 21:06:16;;;;;;;;;;;9.80;99.90;;;;;;8231356;28;19964;-84
2023/05/14 21:10:39;;;;;;;;;;;9.70;99.90;;;;;;8245831;28;19914;-84
2023/05/14 21:14:48;;;;;;;;;;;9.30;99.90;;;;;;8243089;28;19916;-84
2023/05/14 21:19:02;;;;;;;;;;;9.10;99.90;;;;;;8240732;28;19918;-87
2023/05/14 21:23:51;;;;;;;;;;;9.10;99.90;;;;;;8230577;28;19910;-85
2023/05/14 21:27:26;;;;;;;;;;;9.20;99.90;;;;;;8238334;28;20464;-86
2023/05/14 21:31:29;;;;;;;;;;;9.60;99.90;;;;;;8236275;28;19914;-85
2023/05/14 21:35:40;;;;;;;;;;;9.50;99.90;;;;;;8237483;28;20394;-85
2023/05/14 21:39:47;;;;;;;;;;;9.30;99.90;;;;;;8244000;28;19925;-85
2023/05/14 21:48:44;;;;;;;;;;;9.20;99.90;;;;;;8237174;28;19918;-85
2023/05/14 21:53:12;;;;;;;;;;;9.30;99.90;;;;;;8232734;28;19911;-86
2023/05/14 21:57:16;;;;;;;;;;;9.20;99.90;;;;;;8233356;28;19993;-85
2023/05/14 22:01:37;;;;;;;;;;;9.20;99.90;;;;;;8241081;28;19921;-85
2023/05/14 22:05:38;;;;;;;;;;;9.20;99.90;;;;;;8221546;28;19919;-88
2023/05/14 22:10:02;;;;;;;;;;;9.20;99.90;;;;;;8235114;28;19914;-85
2023/05/14 22:14:03;;;;;;;;;;;9.30;99.90;;;;;;8218727;28;20009;-85
2023/05/14 22:18:11;;;;;;;;;;;9.30;99.90;;;;;;8235818;28;19910;-84
2023/05/14 22:22:15;;;;;;;;;;;9.40;99.90;;;;;;8232629;28;19914;-85
2023/05/14 22:26:16;;;;;;;;;;;9.30;99.90;;;;;;8233745;28;19914;-85
2023/05/14 22:30:22;;;;;;;;;;;9.40;99.90;;;;;;8229280;28;19989;-85
2023/05/14 22:34:32;;;;;;;;;;;9.40;99.90;;;;;;8235966;28;19911;-85
2023/05/14 22:38:40;;;;;;;;;;;9.40;99.90;;;;;;8238064;28;19970;-84
2023/05/14 22:42:53;;;;;;;;;;;9.40;99.90;;;;;;8222990;28;20009;-85
2023/05/14 22:46:54;;;;;;;;;;;9.30;99.90;;;;;;8240346;28;19914;-85
2023/05/14 22:51:06;;;;;;;;;;;9.40;99.90;;;;;;8240389;28;19910;-85
2023/05/14 22:55:10;;;;;;;;;;;9.30;99.90;;;;;;8232107;28;19910;-85
2023/05/14 22:59:20;;;;;;;;;;;9.20;99.90;;;;;;8223676;28;19917;-85
2023/05/14 23:03:49;;;;;;;;;;;9.30;99.90;;;;;;8230701;28;19921;-85
2023/05/14 23:08:08;;;;;;;;;;;9.30;99.90;;;;;;8221395;28;19911;-85
2023/05/14 23:12:08;;;;;;;;;;;9.20;99.90;;;;;;8236900;28;20331;-84
2023/05/14 23:16:17;;;;;;;;;;;9.10;99.90;;;;;;8242658;28;19918;-85
2023/05/14 23:20:29;;;;;;;;;;;9.00;99.90;;;;;;8233393;28;19961;-86
2023/05/14 23:24:49;;;;;;;;;;;9.00;99.90;;;;;;8233371;28;19910;-86
2023/05/14 23:28:53;;;;;;;;;;;8.90;99.90;;;;;;8211427;28;20058;-85
2023/05/14 23:32:57;;;;;;;;;;;8.80;99.90;;;;;;8238549;28;20335;-84
2023/05/14 23:37:18;;;;;;;;;;;8.90;99.90;;;;;;8235883;28;20352;-85
2023/05/14 23:41:30;;;;;;;;;;;8.70;99.90;;;;;;8225643;28;19922;-85
2023/05/14 23:50:27;;;;;;;;;;;8.90;99.90;;;;;;8177542;28;19910;-85
2023/05/14 23:54:46;;;;;;;;;;;9.00;99.90;;;;;;8210355;28;19910;-85
2023/05/14 23:58:52;;;;;;;;;;;9.10;99.90;;;;;;8236706;28;19961;-85
